Time;durP1;ratioP1;P1;durP2;ratioP2;P2;SDS_P1;SDS_P2;PMS_P1;PMS_P2;Temp;Humidity;BMP_temperature;BMP_pressure;BME280_temperature;BME280_humidity;BME280_pressure;Samples;Min_cycle;Max_cycle;Signal;HPM_P1;HPM_P2
2023/12/31 00:01:13;;;;;;;17.25;12.32;;;5.40;53.00;;;;;;7381108;19;20031;-70
2023/12/31 00:03:43;;;;;;;17.92;12.50;;;5.40;54.10;;;;;;7382831;19;20401;-71
2023/12/31 00:06:15;;;;;;;20.13;11.77;;;5.40;48.20;;;;;;7380958;19;20041;-70
2023/12/31 00:08:45;;;;;;;14.57;11.35;;;5.40;42.10;;;;;;7381248;19;20014;-70
2023/12/31 00:11:15;;;;;;;18.92;11.45;;;5.40;38.80;;;;;;7381325;19;20475;-70
2023/12/31 00:13:45;;;;;;;16.05;10.93;;;5.40;37.50;;;;;;7383153;19;20347;-71
2023/12/31 00:16:17;;;;;;;15.20;10.57;;;5.40;35.80;;;;;;7381069;19;20078;-71
2023/12/31 00:18:47;;;;;;;13.25;9.85;;;5.30;34.90;;;;;;7381509;19;20519;-70
2023/12/31 00:21:19;;;;;;;18.25;10.82;;;5.30;36.10;;;;;;7382128;19;20017;-71
2023/12/31 00:23:49;;;;;;;17.77;11.07;;;5.30;37.60;;;;;;7381981;19;20035;-70
2023/12/31 00:26:19;;;;;;;13.02;9.95;;;5.30;39.10;;;;;;7382587;19;20016;-71
2023/12/31 00:28:49;;;;;;;17.90;9.40;;;5.30;36.70;;;;;;7382267;19;20021;-71
2023/12/31 00:31:19;;;;;;;13.45;9.75;;;5.30;35.80;;;;;;7382314;19;20010;-71
2023/12/31 00:33:50;;;;;;;13.80;10.23;;;5.30;38.80;;;;;;7381393;19;20022;-71
2023/12/31 00:36:23;;;;;;;13.55;10.05;;;5.30;33.80;;;;;;7380696;19;20039;-71
2023/12/31 00:38:53;;;;;;;13.45;10.23;;;5.20;35.20;;;;;;7381304;19;20014;-70
2023/12/31 00:41:23;;;;;;;15.27;9.77;;;5.20;36.90;;;;;;7377926;19;20007;-70
2023/12/31 00:43:54;;;;;;;16.85;9.88;;;5.20;39.50;;;;;;7379395;19;20451;-71
2023/12/31 00:46:25;;;;;;;14.93;10.25;;;5.10;44.00;;;;;;7377190;19;20014;-72
2023/12/31 00:48:55;;;;;;;15.52;11.13;;;5.10;47.00;;;;;;7379272;19;20032;-72
2023/12/31 00:51:27;;;;;;;15.25;11.23;;;5.00;45.10;;;;;;7380114;19;20007;-71
2023/12/31 00:53:59;;;;;;;14.77;10.27;;;5.10;52.90;;;;;;7379557;19;20006;-71
2023/12/31 00:56:29;;;;;;;12.98;10.05;;;5.20;52.30;;;;;;7380923;19;20039;-70
2023/12/31 00:58:59;;;;;;;14.65;10.07;;;5.10;48.80;;;;;;7377420;19;20078;-71
2023/12/31 01:01:29;;;;;;;16.40;10.55;;;5.10;49.20;;;;;;7380918;19;20889;-70
2023/12/31 01:03:59;;;;;;;13.57;9.60;;;5.10;49.30;;;;;;7379987;19;20024;-71
2023/12/31 01:06:32;;;;;;;14.73;9.60;;;5.10;45.30;;;;;;7380300;19;20014;-70
2023/12/31 01:09:04;;;;;;;14.50;10.15;;;5.10;45.90;;;;;;7374840;19;20021;-70
2023/12/31 01:11:34;;;;;;;14.65;9.70;;;5.10;42.80;;;;;;7377842;19;20010;-71
2023/12/31 01:14:04;;;;;;;15.50;10.27;;;5.00;41.90;;;;;;7374928;19;20011;-71
2023/12/31 01:16:34;;;;;;;13.05;9.52;;;5.00;42.90;;;;;;7378558;19;20090;-70
2023/12/31 01:19:04;;;;;;;12.45;9.32;;;5.00;52.80;;;;;;7375768;19;20393;-70
2023/12/31 01:21:37;;;;;;;13.13;10.15;;;4.90;49.60;;;;;;7380602;19;20014;-70
2023/12/31 01:24:07;;;;;;;13.65;10.38;;;4.90;50.40;;;;;;7374106;19;20015;-70
2023/12/31 01:26:37;;;;;;;15.82;10.23;;;4.80;54.80;;;;;;7377934;19;20014;-70
2023/12/31 01:29:07;;;;;;;14.10;10.50;;;4.90;67.50;;;;;;7373704;19;20332;-70
2023/12/31 01:31:37;;;;;;;14.23;10.18;;;4.90;69.70;;;;;;7375858;19;20011;-70
2023/12/31 01:34:07;;;;;;;15.52;10.50;;;4.90;66.90;;;;;;7378730;19;20086;-70
2023/12/31 01:36:40;;;;;;;16.02;10.80;;;4.90;61.00;;;;;;7379598;19;20083;-71
2023/12/31 01:39:10;;;;;;;13.07;9.73;;;4.80;62.10;;;;;;7376644;19;20359;-71
2023/12/31 01:41:41;;;;;;;12.50;9.20;;;4.80;61.40;;;;;;7379019;19;20371;-71
2023/12/31 01:44:11;;;;;;;14.82;9.98;;;4.80;61.90;;;;;;7377571;19;20364;-70
2023/12/31 01:46:41;;;;;;;13.23;9.75;;;4.90;64.10;;;;;;7379382;19;20003;-70
2023/12/31 01:49:12;;;;;;;13.60;9.90;;;4.90;62.20;;;;;;7373387;19;20007;-70
2023/12/31 01:51:45;;;;;;;15.40;9.48;;;4.80;56.80;;;;;;7375958;19;20026;-70
2023/12/31 01:54:16;;;;;;;13.90;9.30;;;4.90;64.10;;;;;;7378713;19;20077;-70
2023/12/31 01:56:49;;;;;;;13.55;9.20;;;4.90;63.80;;;;;;7379266;19;20002;-70
2023/12/31 01:59:19;;;;;;;13.45;9.77;;;4.90;58.90;;;;;;7377273;19;20494;-71
2023/12/31 02:01:51;;;;;;;12.77;9.52;;;4.90;54.40;;;;;;7375153;19;20078;-70
2023/12/31 02:04:33;;;;;;;12.80;9.55;;;4.80;49.00;;;;;;7378944;19;20011;-70
2023/12/31 02:07:06;;;;;;;12.45;8.27;;;4.80;49.10;;;;;;7368916;19;20015;-71
2023/12/31 02:09:38;;;;;;;10.95;8.35;;;4.80;46.00;;;;;;7377557;19;20635;-70
2023/12/31 02:12:09;;;;;;;13.35;8.85;;;4.70;45.60;;;;;;7377564;19;20502;-71
2023/12/31 02:14:39;;;;;;;11.73;9.07;;;4.70;51.90;;;;;;7378347;19;20274;-70
2023/12/31 02:17:09;;;;;;;13.13;9.05;;;4.70;55.20;;;;;;7380669;19;20003;-71
2023/12/31 02:19:37;;;;;;;12.77;8.63;;;4.50;55.70;;;;;;7377812;19;20031;-70
2023/12/31 02:22:10;;;;;;;11.35;8.35;;;4.50;63.00;;;;;;7374687;19;20015;-71
2023/12/31 02:24:48;;;;;;;12.68;7.93;;;4.40;66.30;;;;;;7375999;19;20374;-70
2023/12/31 02:27:21;;;;;;;14.23;7.88;;;4.40;69.00;;;;;;7374339;19;20039;-70
2023/12/31 02:29:51;;;;;;;11.07;7.78;;;4.40;68.60;;;;;;7370119;19;20011;-69
2023/12/31 02:32:22;;;;;;;10.98;8.00;;;4.40;72.30;;;;;;7376006;19;20014;-71
2023/12/31 02:34:52;;;;;;;11.52;8.98;;;4.30;71.30;;;;;;7377073;19;20077;-71
2023/12/31 02:37:22;;;;;;;12.43;8.65;;;4.30;81.40;;;;;;7376994;19;20489;-70
2023/12/31 02:39:52;;;;;;;13.05;8.98;;;4.30;81.40;;;;;;7371657;19;20039;-70
2023/12/31 02:42:25;;;;;;;14.63;9.20;;;4.30;83.40;;;;;;7373960;19;20010;-70
2023/12/31 02:44:55;;;;;;;12.35;8.95;;;4.20;80.40;;;;;;7371345;19;20027;-70
2023/12/31 02:47:25;;;;;;;12.70;8.27;;;4.20;87.30;;;;;;7375323;19;20006;-70
2023/12/31 02:49:55;;;;;;;11.20;8.05;;;4.30;90.40;;;;;;7373836;19;20336;-70
2023/12/31 02:52:25;;;;;;;11.70;8.35;;;4.40;89.60;;;;;;7375933;19;20010;-70
2023/12/31 02:54:55;;;;;;;15.02;8.98;;;4.50;82.80;;;;;;7375891;19;20015;-70
2023/12/31 02:57:29;;;;;;;17.17;9.50;;;4.60;73.20;;;;;;7376815;19;20361;-70
2023/12/31 02:59:59;;;;;;;12.68;8.65;;;4.60;56.50;;;;;;7376379;19;20007;-70
2023/12/31 03:02:29;;;;;;;11.50;8.73;;;4.80;48.90;;;;;;7375934;19;20011;-70
2023/12/31 03:04:59;;;;;;;12.07;8.43;;;4.90;30.00;;;;;;7375195;19;20014;-70
2023/12/31 03:07:29;;;;;;;12.27;9.13;;;4.90;13.40;;;;;;7376335;19;20456;-70
2023/12/31 03:10:00;;;;;;;14.50;8.85;;;5.00;7.60;;;;;;7376049;19;20020;-70
2023/12/31 03:12:32;;;;;;;11.20;8.38;;;5.10;3.50;;;;;;7381298;19;20010;-70
2023/12/31 03:15:03;;;;;;;10.75;8.32;;;5.10;1.00;;;;;;7382214;19;20022;-70
2023/12/31 03:17:33;;;;;;;10.77;8.65;;;5.20;1.00;;;;;;7382328;19;20795;-70
2023/12/31 03:20:03;;;;;;;10.88;8.02;;;5.20;1.00;;;;;;7380783;19;20343;-70
2023/12/31 03:22:33;;;;;;;12.98;8.00;;;5.20;1.00;;;;;;7381781;19;20021;-70
2023/12/31 03:25:11;;;;;;;8.77;7.63;;;5.20;1.00;;;;;;7381402;19;20015;-70
2023/12/31 03:27:45;;;;;;;12.10;8.27;;;5.30;1.00;;;;;;7382317;19;20566;-69
2023/12/31 03:30:16;;;;;;;9.82;7.93;;;5.30;1.00;;;;;;7380763;19;20007;-70
2023/12/31 03:32:46;;;;;;;11.70;7.80;;;5.40;1.00;;;;;;7382342;19;20010;-70
2023/12/31 03:35:16;;;;;;;10.98;7.68;;;5.40;1.00;;;;;;7382048;19;20015;-70
2023/12/31 03:37:47;;;;;;;10.80;7.95;;;5.50;1.00;;;;;;7382880;19;20015;-70
2023/12/31 03:40:18;;;;;;;10.10;8.30;;;5.50;1.00;;;;;;7381109;19;20014;-70
2023/12/31 03:42:50;;;;;;;11.18;8.00;;;5.50;1.00;;;;;;7380257;19;20086;-70
2023/12/31 03:45:20;;;;;;;12.20;8.32;;;5.50;1.00;;;;;;7380035;19;20027;-70
2023/12/31 03:47:50;;;;;;;10.43;7.57;;;5.50;1.00;;;;;;7377138;19;20530;-70
2023/12/31 03:50:21;;;;;;;11.05;7.28;;;5.50;1.00;;;;;;7381509;19;20479;-70
2023/12/31 03:52:53;;;;;;;10.63;7.47;;;5.60;1.00;;;;;;7382189;19;20013;-70
2023/12/31 03:55:24;;;;;;;11.07;7.80;;;5.60;1.00;;;;;;7381819;19;20006;-70
2023/12/31 03:57:57;;;;;;;10.55;7.50;;;5.70;1.00;;;;;;7380791;19;20011;-71
2023/12/31 04:00:27;;;;;;;7.22;6.32;;;5.70;1.00;;;;;;7380136;19;20025;-70
2023/12/31 04:02:57;;;;;;;11.68;6.82;;;5.80;1.00;;;;;;7381351;19;20022;-71
2023/12/31 04:05:27;;;;;;;7.57;6.53;;;5.70;1.00;;;;;;7380049;19;20482;-70
2023/12/31 04:07:57;;;;;;;10.50;7.47;;;5.80;1.00;;;;;;7382328;19;20030;-70
2023/12/31 04:10:27;;;;;;;8.95;7.13;;;5.80;1.00;;;;;;7379163;19;20025;-70
2023/12/31 04:12:59;;;;;;;9.45;6.97;;;5.90;1.00;;;;;;7381582;19;20010;-69
2023/12/31 04:15:30;;;;;;;10.20;6.38;;;5.80;1.00;;;;;;7378519;19;20629;-70
2023/12/31 04:18:00;;;;;;;9.73;6.60;;;5.70;1.00;;;;;;7379861;19;20013;-70
2023/12/31 04:20:30;;;;;;;9.30;6.70;;;5.70;1.00;;;;;;7380461;19;20018;-71
2023/12/31 04:23:00;;;;;;;8.93;6.90;;;5.80;1.00;;;;;;7378131;19;20011;-70
2023/12/31 04:25:30;;;;;;;7.88;6.18;;;5.70;1.00;;;;;;7379417;19;20022;-70
2023/12/31 04:28:03;;;;;;;7.95;6.63;;;5.80;1.00;;;;;;7379712;19;20011;-70
2023/12/31 04:30:34;;;;;;;8.55;7.00;;;5.70;1.00;;;;;;7380690;19;20049;-70
2023/12/31 04:33:04;;;;;;;9.40;6.90;;;5.60;1.00;;;;;;7379712;19;20040;-69
2023/12/31 04:35:34;;;;;;;8.60;6.00;;;5.60;1.00;;;;;;7379394;19;20466;-69
2023/12/31 04:38:05;;;;;;;9.55;6.88;;;5.60;1.00;;;;;;7378605;19;20018;-69
2023/12/31 04:40:35;;;;;;;7.93;5.80;;;5.60;1.00;;;;;;7380898;19;20024;-69
2023/12/31 04:43:08;;;;;;;8.38;5.75;;;5.70;1.00;;;;;;7381128;19;20039;-69
2023/12/31 04:45:39;;;;;;;7.95;6.07;;;5.70;1.00;;;;;;7379395;19;20010;-69
2023/12/31 04:48:09;;;;;;;7.07;5.30;;;5.80;1.00;;;;;;7378062;19;20017;-70
2023/12/31 04:50:39;;;;;;;8.38;5.90;;;5.80;1.00;;;;;;7379327;19;20388;-70
2023/12/31 04:53:10;;;;;;;6.30;5.38;;;5.90;1.00;;;;;;7378399;19;20014;-69
2023/12/31 04:55:40;;;;;;;7.15;5.03;;;5.90;1.00;;;;;;7379372;19;20503;-70
2023/12/31 04:58:12;;;;;;;8.27;5.70;;;5.90;1.00;;;;;;7377877;19;20015;-69
2023/12/31 05:00:42;;;;;;;6.72;5.10;;;5.80;1.00;;;;;;7378598;19;20027;-70
2023/12/31 05:03:12;;;;;;;8.90;5.38;;;5.80;1.00;;;;;;7380022;19;20038;-70
2023/12/31 05:05:42;;;;;;;8.57;5.85;;;5.80;1.00;;;;;;7378941;19;20018;-70
2023/12/31 05:08:13;;;;;;;9.77;5.68;;;5.70;1.00;;;;;;7376987;19;20035;-69
2023/12/31 05:10:43;;;;;;;7.05;5.50;;;5.60;1.00;;;;;;7378858;19;20506;-69
2023/12/31 05:13:16;;;;;;;6.57;5.20;;;5.60;1.00;;;;;;7376605;19;20011;-70
2023/12/31 05:15:46;;;;;;;7.32;4.95;;;5.60;1.00;;;;;;7378600;19;20010;-69
2023/12/31 05:18:17;;;;;;;8.02;4.93;;;5.60;1.00;;;;;;7377472;19;20031;-70
2023/12/31 05:20:47;;;;;;;6.07;4.85;;;5.60;1.00;;;;;;7378636;19;20022;-68
2023/12/31 05:23:17;;;;;;;6.88;5.25;;;5.60;1.00;;;;;;7377504;19;20007;-69
2023/12/31 05:25:47;;;;;;;8.48;6.70;;;5.60;1.00;;;;;;7377571;19;20014;-69
2023/12/31 05:28:20;;;;;;;6.88;4.70;;;5.60;1.00;;;;;;7377646;19;20002;-69
2023/12/31 05:30:50;;;;;;;6.30;5.35;;;5.60;1.00;;;;;;7378228;19;20018;-69
2023/12/31 05:33:20;;;;;;;6.40;5.07;;;5.60;1.00;;;;;;7375829;19;20073;-70
2023/12/31 05:35:50;;;;;;;7.05;5.20;;;5.50;1.00;;;;;;7377770;19;20015;-69
2023/12/31 05:38:20;;;;;;;6.38;5.22;;;5.50;1.00;;;;;;7378417;19;20017;-69
2023/12/31 05:40:50;;;;;;;8.23;5.32;;;5.50;1.00;;;;;;7377726;19;20017;-70
2023/12/31 05:43:23;;;;;;;7.78;5.43;;;5.50;1.00;;;;;;7378241;19;20097;-69
2023/12/31 05:45:53;;;;;;;7.78;5.43;;;5.40;1.00;;;;;;7376856;19;20014;-69
2023/12/31 05:48:24;;;;;;;7.75;4.90;;;5.40;1.00;;;;;;7375579;19;20468;-69
2023/12/31 05:50:54;;;;;;;5.93;4.95;;;5.40;1.00;;;;;;7377226;19;20481;-69
2023/12/31 05:53:24;;;;;;;6.05;4.45;;;5.40;1.00;;;;;;7376945;19;20513;-70
2023/12/31 05:55:54;;;;;;;6.57;4.70;;;5.40;1.00;;;;;;7376239;19;20021;-69
2023/12/31 05:58:27;;;;;;;6.28;4.95;;;5.40;1.00;;;;;;7376760;19;20014;-69
2023/12/31 06:00:58;;;;;;;5.53;4.43;;;5.40;1.00;;;;;;7378169;19;20027;-69
2023/12/31 06:03:28;;;;;;;5.50;4.30;;;5.40;1.00;;;;;;7377480;19;20015;-69
2023/12/31 06:05:58;;;;;;;5.65;4.03;;;5.40;1.00;;;;;;7377632;19;20010;-68
2023/12/31 06:08:28;;;;;;;7.38;4.97;;;5.40;1.00;;;;;;7377569;19;20013;-70
2023/12/31 06:10:58;;;;;;;6.00;4.43;;;5.40;1.00;;;;;;7378019;19;20543;-70
2023/12/31 06:13:31;;;;;;;6.15;4.70;;;5.40;1.00;;;;;;7377470;19;20010;-68
2023/12/31 06:16:01;;;;;;;10.13;5.93;;;5.40;1.00;;;;;;7378269;19;20010;-70
2023/12/31 06:18:31;;;;;;;7.03;4.72;;;5.40;1.00;;;;;;7375773;19;20013;-70
2023/12/31 06:21:01;;;;;;;6.68;4.05;;;5.40;1.00;;;;;;7373920;19;20082;-69
2023/12/31 06:23:31;;;;;;;5.95;4.05;;;5.50;1.00;;;;;;7377987;19;20021;-69
2023/12/31 06:26:01;;;;;;;5.03;3.65;;;5.60;1.00;;;;;;7377263;19;20006;-69
2023/12/31 06:28:33;;;;;;;5.20;4.07;;;5.60;1.00;;;;;;7376741;19;20007;-69
2023/12/31 06:31:04;;;;;;;6.35;4.03;;;5.50;1.00;;;;;;7374575;19;20014;-69
2023/12/31 06:33:34;;;;;;;5.75;3.97;;;5.60;1.00;;;;;;7375516;19;20396;-70
2023/12/31 06:36:05;;;;;;;4.25;3.75;;;5.60;1.00;;;;;;7375982;19;20021;-70
2023/12/31 06:38:35;;;;;;;4.70;3.50;;;5.60;1.00;;;;;;7376492;19;20010;-70
2023/12/31 06:41:10;;;;;;;4.05;3.40;;;5.70;1.00;;;;;;7378048;19;20105;-69
2023/12/31 06:43:43;;;;;;;4.38;3.58;;;5.80;1.00;;;;;;7374161;19;20002;-69
2023/12/31 06:46:14;;;;;;;3.53;3.00;;;5.80;1.00;;;;;;7374087;19;20127;-69
2023/12/31 06:48:44;;;;;;;4.57;3.38;;;5.80;1.00;;;;;;7374763;19;20116;-69
2023/12/31 06:51:14;;;;;;;3.55;2.53;;;5.80;1.00;;;;;;7375414;19;20011;-70
2023/12/31 06:53:44;;;;;;;4.70;2.70;;;5.90;1.00;;;;;;7376596;19;20010;-70
2023/12/31 06:56:14;;;;;;;3.15;2.35;;;6.00;1.00;;;;;;7376608;19;20518;-70
2023/12/31 06:58:48;;;;;;;2.47;2.20;;;6.00;1.00;;;;;;7375009;19;20014;-69
2023/12/31 07:01:18;;;;;;;2.20;2.00;;;6.10;1.00;;;;;;7374649;19;20017;-69
2023/12/31 07:03:48;;;;;;;2.70;2.15;;;6.10;1.00;;;;;;7377403;19;20027;-69
2023/12/31 07:06:15;;;;;;;2.20;1.75;;;6.10;1.00;;;;;;7375273;19;20014;-68
2023/12/31 07:08:45;;;;;;;2.20;1.60;;;6.20;1.00;;;;;;7375609;19;20031;-71
2023/12/31 07:11:16;;;;;;;2.47;1.88;;;6.20;1.00;;;;;;7373678;19;20014;-69
2023/12/31 07:13:49;;;;;;;2.55;1.60;;;6.30;1.00;;;;;;7376720;19;20022;-69
2023/12/31 07:16:19;;;;;;;2.60;1.95;;;6.20;1.00;;;;;;7370323;19;20010;-69
2023/12/31 07:18:49;;;;;;;2.47;2.10;;;6.30;1.00;;;;;;7374353;19;20074;-69
2023/12/31 07:21:24;;;;;;;2.08;1.70;;;6.40;1.00;;;;;;7373968;19;20028;-69
2023/12/31 07:23:54;;;;;;;3.05;1.88;;;6.50;1.00;;;;;;7374885;19;20022;-70
2023/12/31 07:26:27;;;;;;;3.28;1.48;;;6.60;1.00;;;;;;7374379;19;20014;-70
2023/12/31 07:29:00;;;;;;;2.08;1.70;;;6.80;1.00;;;;;;7373989;19;20007;-69
2023/12/31 07:31:40;;;;;;;2.20;1.77;;;6.80;1.00;;;;;;7374821;19;20384;-70
2023/12/31 07:34:10;;;;;;;2.80;1.92;;;6.80;1.00;;;;;;7375534;19;20011;-69
2023/12/31 07:36:40;;;;;;;2.42;1.90;;;6.90;1.00;;;;;;7374054;19;20542;-70
2023/12/31 07:39:10;;;;;;;4.30;1.98;;;6.90;1.00;;;;;;7375161;19;20027;-70
2023/12/31 07:41:40;;;;;;;2.78;1.58;;;6.90;1.00;;;;;;7373421;19;20011;-69
2023/12/31 07:44:13;;;;;;;1.70;1.60;;;6.90;1.00;;;;;;7373333;19;20010;-70
2023/12/31 07:46:42;;;;;;;2.10;1.80;;;6.80;1.00;;;;;;7373026;19;20015;-70
2023/12/31 07:49:13;;;;;;;2.50;1.65;;;6.80;1.00;;;;;;7371999;19;20374;-70
2023/12/31 07:51:43;;;;;;;2.83;1.80;;;6.80;1.00;;;;;;7373478;19;20442;-71
2023/12/31 07:54:13;;;;;;;2.00;1.80;;;6.80;1.00;;;;;;7372270;19;20014;-70
2023/12/31 07:56:44;;;;;;;2.10;1.67;;;6.80;1.00;;;;;;7372400;19;20007;-69
2023/12/31 07:59:16;;;;;;;3.00;2.13;;;6.80;1.00;;;;;;7378843;19;20016;-70
2023/12/31 08:01:46;;;;;;;3.53;1.88;;;6.80;1.00;;;;;;7379964;19;20427;-70
2023/12/31 08:04:16;;;;;;;2.88;2.08;;;6.80;1.00;;;;;;7379393;19;20467;-69
2023/12/31 08:06:46;;;;;;;3.83;1.90;;;6.80;1.00;;;;;;7380439;19;20014;-70
2023/12/31 08:09:16;;;;;;;2.67;1.90;;;6.90;1.00;;;;;;7378594;19;20011;-70
2023/12/31 08:11:46;;;;;;;2.50;2.03;;;6.90;1.00;;;;;;7378611;19;20009;-69
2023/12/31 08:14:19;;;;;;;4.60;2.08;;;6.90;1.00;;;;;;7378033;19;19998;-70
2023/12/31 08:16:49;;;;;;;8.90;4.78;;;6.90;1.00;;;;;;7379710;19;20010;-69
2023/12/31 08:19:20;;;;;;;5.00;3.05;;;7.00;1.00;;;;;;7377788;19;20858;-70
2023/12/31 08:21:50;;;;;;;4.20;3.00;;;7.00;1.00;;;;;;7379323;19;20499;-70
2023/12/31 08:24:20;;;;;;;3.97;2.53;;;7.00;1.00;;;;;;7376900;19;20370;-70
2023/12/31 08:26:50;;;;;;;2.40;1.92;;;7.00;1.00;;;;;;7378650;19;20006;-69
2023/12/31 08:29:23;;;;;;;3.40;2.20;;;7.00;1.00;;;;;;7377337;19;20011;-69
2023/12/31 08:31:53;;;;;;;3.28;2.25;;;7.00;1.00;;;;;;7378723;19;20063;-70
2023/12/31 08:34:23;;;;;;;2.90;2.60;;;7.10;1.00;;;;;;7379224;19;20027;-69
2023/12/31 08:36:53;;;;;;;3.78;2.20;;;7.10;1.00;;;;;;7380427;19;20009;-70
2023/12/31 08:39:23;;;;;;;3.85;2.60;;;7.10;1.00;;;;;;7378370;19;20017;-69
2023/12/31 08:41:53;;;;;;;3.70;2.78;;;7.00;1.00;;;;;;7380285;19;20010;-69
2023/12/31 08:44:26;;;;;;;6.32;3.70;;;7.10;1.00;;;;;;7379395;19;20349;-69
2023/12/31 08:46:56;;;;;;;4.90;3.90;;;7.10;1.00;;;;;;7380795;19;20002;-70
2023/12/31 08:49:29;;;;;;;3.20;2.50;;;7.10;1.00;;;;;;7378793;19;20099;-70
2023/12/31 08:51:59;;;;;;;3.55;2.60;;;7.20;1.00;;;;;;7380322;19;20443;-69
2023/12/31 08:54:29;;;;;;;6.20;3.70;;;7.40;1.00;;;;;;7380470;19;20043;-69
2023/12/31 08:56:59;;;;;;;4.28;2.97;;;7.40;1.00;;;;;;7379396;19;20377;-70
2023/12/31 08:59:31;;;;;;;4.00;2.60;;;7.50;1.00;;;;;;7378758;19;20018;-70
2023/12/31 09:02:02;;;;;;;2.55;2.05;;;7.50;1.00;;;;;;7379529;19;20401;-70
2023/12/31 09:04:34;;;;;;;2.95;2.17;;;7.70;1.00;;;;;;7379847;19;20172;-70
2023/12/31 09:07:04;;;;;;;3.17;2.10;;;7.70;1.00;;;;;;7378900;19;20031;-69
2023/12/31 09:09:34;;;;;;;3.60;2.30;;;7.70;1.00;;;;;;7378473;19;20095;-70
2023/12/31 09:12:04;;;;;;;3.55;2.08;;;7.70;1.00;;;;;;7379865;19;20026;-70
2023/12/31 09:14:37;;;;;;;3.40;2.33;;;7.70;1.00;;;;;;7379123;19;20009;-69
2023/12/31 09:17:07;;;;;;;4.78;2.45;;;7.70;1.00;;;;;;7380094;19;20010;-70
2023/12/31 09:19:38;;;;;;;3.28;2.55;;;7.80;1.00;;;;;;7377659;19;20071;-69
2023/12/31 09:22:08;;;;;;;4.20;2.42;;;7.80;1.00;;;;;;7379569;19;20007;-70
2023/12/31 09:24:38;;;;;;;4.43;2.92;;;7.80;1.00;;;;;;7378936;19;20018;-69
2023/12/31 09:27:09;;;;;;;3.60;2.40;;;7.90;1.00;;;;;;7379614;19;20034;-69
2023/12/31 09:29:41;;;;;;;4.18;2.47;;;7.80;1.00;;;;;;7380893;19;21184;-69
2023/12/31 09:32:11;;;;;;;2.85;2.50;;;7.80;1.00;;;;;;7380388;19;20007;-70
2023/12/31 09:34:42;;;;;;;3.30;2.65;;;7.80;1.00;;;;;;7379857;19;20010;-70
2023/12/31 09:37:18;;;;;;;3.72;2.30;;;7.80;1.00;;;;;;7380040;19;20467;-69
2023/12/31 09:39:48;;;;;;;3.30;2.45;;;7.80;1.00;;;;;;7378280;19;20030;-70
2023/12/31 09:42:22;;;;;;;3.97;2.40;;;7.90;1.00;;;;;;7379017;19;20425;-70
2023/12/31 09:44:55;;;;;;;2.72;2.40;;;7.90;1.00;;;;;;7377122;19;20010;-70
2023/12/31 09:47:27;;;;;;;4.03;3.17;;;7.90;1.00;;;;;;7377171;19;20011;-69
2023/12/31 09:49:58;;;;;;;2.63;2.22;;;8.00;1.00;;;;;;7377992;19;20013;-70
2023/12/31 09:52:29;;;;;;;3.53;2.70;;;8.00;1.00;;;;;;7378702;19;20006;-69
2023/12/31 09:55:00;;;;;;;3.47;2.70;;;8.00;1.00;;;;;;7378081;19;20022;-70
2023/12/31 09:57:34;;;;;;;3.47;2.63;;;8.10;1.00;;;;;;7376959;19;20006;-70
2023/12/31 10:00:08;;;;;;;3.22;2.67;;;8.20;1.00;;;;;;7375653;19;20033;-70
2023/12/31 10:02:39;;;;;;;3.33;2.88;;;8.30;1.00;;;;;;7376060;19;20011;-71
2023/12/31 10:05:09;;;;;;;4.75;3.15;;;8.30;1.00;;;;;;7376466;19;20006;-69
2023/12/31 10:07:39;;;;;;;3.35;2.80;;;8.30;1.00;;;;;;7376179;19;21835;-70
2023/12/31 10:10:12;;;;;;;3.67;2.40;;;8.40;1.00;;;;;;7375757;19;20397;-69
2023/12/31 10:12:42;;;;;;;3.72;2.70;;;8.40;1.00;;;;;;7376784;19;20018;-70
2023/12/31 10:15:15;;;;;;;4.20;2.80;;;8.40;1.00;;;;;;7375737;19;20036;-69
2023/12/31 10:17:45;;;;;;;5.15;3.15;;;8.40;1.00;;;;;;7376883;19;20035;-70
2023/12/31 10:20:15;;;;;;;4.32;2.60;;;8.40;1.00;;;;;;7373846;19;20534;-68
2023/12/31 10:22:45;;;;;;;4.85;2.88;;;8.40;1.00;;;;;;7376666;19;20364;-70
2023/12/31 10:25:18;;;;;;;4.05;2.92;;;8.50;1.00;;;;;;7376600;19;20348;-70
2023/12/31 10:27:49;;;;;;;3.92;2.78;;;8.50;1.00;;;;;;7376651;19;20027;-71
2023/12/31 10:30:22;;;;;;;5.43;3.15;;;8.40;1.00;;;;;;7373971;19;20006;-70
2023/12/31 10:32:53;;;;;;;3.60;2.53;;;8.40;1.00;;;;;;7377798;19;20027;-70
2023/12/31 10:35:23;;;;;;;7.43;4.85;;;8.40;1.00;;;;;;7377491;19;20368;-70
2023/12/31 10:38:05;;;;;;;3.90;2.85;;;8.30;1.00;;;;;;7377348;19;20086;-70
2023/12/31 10:40:36;;;;;;;4.30;2.65;;;8.40;1.00;;;;;;6865226;19;2005229;-70
2023/12/31 10:43:12;;;;;;;3.55;2.75;;;8.40;1.00;;;;;;7375502;19;20039;-70
2023/12/31 10:45:44;;;;;;;3.85;2.75;;;8.40;1.00;;;;;;7375423;19;20007;-70
2023/12/31 10:48:16;;;;;;;3.22;2.88;;;8.50;1.00;;;;;;7374469;19;20009;-70
2023/12/31 10:50:52;;;;;;;5.13;3.40;;;8.50;1.00;;;;;;7376115;19;20018;-68
2023/12/31 10:53:26;;;;;;;3.60;2.88;;;8.60;1.00;;;;;;7376647;19;20138;-69
2023/12/31 10:55:56;;;;;;;;;;;8.60;1.00;;;;;;7375312;19;20006;-70
2023/12/31 10:58:27;;;;;;;3.47;2.80;;;8.60;1.00;;;;;;7374840;19;19915;-69
2023/12/31 11:01:00;;;;;;;4.22;2.53;;;8.70;1.00;;;;;;7373496;19;20614;-70
2023/12/31 11:03:33;;;;;;;4.05;2.75;;;8.70;1.00;;;;;;7372119;19;20018;-69
2023/12/31 11:06:04;;;;;;;3.57;2.90;;;8.80;1.00;;;;;;7375739;19;20010;-70
2023/12/31 11:08:37;;;;;;;4.07;2.67;;;8.80;1.00;;;;;;7376357;19;20370;-70
2023/12/31 11:11:08;;;;;;;3.38;2.10;;;8.90;1.00;;;;;;7375653;19;20006;-70
2023/12/31 11:13:42;;;;;;;3.42;2.78;;;8.90;1.00;;;;;;7376186;19;20018;-70
2023/12/31 11:16:29;;;;;;;4.30;3.10;;;9.00;1.00;;;;;;7374880;19;20106;-69
2023/12/31 11:19:23;;;;;;;3.42;2.60;;;8.90;1.00;;;;;;7373027;19;20014;-70
2023/12/31 11:22:06;;;;;;;3.42;2.40;;;9.00;1.00;;;;;;7373838;19;20014;-69
2023/12/31 11:24:36;;;;;;;3.42;2.42;;;9.00;1.00;;;;;;7372641;19;20014;-70
2023/12/31 11:27:09;;;;;;;3.25;2.50;;;9.00;1.00;;;;;;7374699;19;20136;-69
2023/12/31 11:29:40;;;;;;;4.90;2.75;;;9.10;1.00;;;;;;7372955;19;20006;-70
2023/12/31 11:32:13;;;;;;;2.80;2.45;;;9.10;1.00;;;;;;7379893;19;20337;-70
2023/12/31 11:34:43;;;;;;;3.35;2.90;;;9.00;1.00;;;;;;7382068;19;20007;-70
2023/12/31 11:37:13;;;;;;;3.70;3.00;;;8.90;1.00;;;;;;7381694;19;20018;-70
2023/12/31 11:39:48;;;;;;;4.93;3.28;;;8.90;1.00;;;;;;7379878;19;20035;-70
2023/12/31 11:42:21;;;;;;;4.95;3.30;;;8.90;1.00;;;;;;7381304;19;21079;-70
2023/12/31 11:44:51;;;;;;;5.10;3.58;;;8.80;1.00;;;;;;7381739;19;20015;-70
2023/12/31 11:47:28;;;;;;;5.85;3.00;;;8.70;1.00;;;;;;7381648;19;20030;-70
2023/12/31 11:50:25;;;;;;;4.13;2.10;;;8.40;1.00;;;;;;7382589;19;20074;-70
2023/12/31 11:52:55;;;;;;;3.80;1.98;;;8.30;1.00;;;;;;6875780;19;2004028;-70
2023/12/31 11:55:25;;;;;;;2.53;1.77;;;8.30;1.00;;;;;;7377846;19;20021;-71
2023/12/31 11:57:57;;;;;;;3.63;1.55;;;8.20;1.00;;;;;;7380829;19;20015;-70
2023/12/31 12:00:29;;;;;;;1.90;1.52;;;8.20;1.00;;;;;;7383577;19;20011;-70
2023/12/31 12:03:04;;;;;;;2.65;1.50;;;8.20;1.00;;;;;;7375388;19;20014;-70
2023/12/31 12:05:34;;;;;;;1.70;1.40;;;8.20;1.00;;;;;;7380535;19;20010;-70
2023/12/31 12:08:05;;;;;;;1.63;1.30;;;8.10;1.00;;;;;;7379549;19;20018;-70
2023/12/31 12:10:36;;;;;;;2.13;1.38;;;8.20;1.00;;;;;;7380208;19;20127;-72
2023/12/31 12:13:06;;;;;;;1.92;1.20;;;8.10;1.00;;;;;;7380583;19;20477;-69
2023/12/31 12:15:34;;;;;;;2.25;1.40;;;8.10;1.00;;;;;;7379864;19;20038;-69
2023/12/31 12:18:15;;;;;;;2.30;1.40;;;8.10;1.00;;;;;;7377996;19;20007;-69
2023/12/31 12:20:46;;;;;;;1.08;0.80;;;8.00;1.00;;;;;;7380661;19;20018;-70
2023/12/31 12:23:19;;;;;;;2.03;0.93;;;8.00;1.00;;;;;;7380790;19;20010;-69
2023/12/31 12:25:49;;;;;;;1.30;1.10;;;8.00;1.00;;;;;;7378865;19;20011;-69
2023/12/31 12:28:20;;;;;;;1.55;0.90;;;8.00;1.00;;;;;;7379756;19;20027;-69
2023/12/31 12:30:51;;;;;;;1.30;0.93;;;8.00;1.00;;;;;;7379619;19;20047;-68
2023/12/31 12:33:24;;;;;;;1.80;1.20;;;8.00;1.00;;;;;;7380289;19;20078;-71
2023/12/31 12:35:56;;;;;;;1.50;1.05;;;8.00;1.00;;;;;;7379664;19;20020;-71
2023/12/31 12:38:28;;;;;;;1.20;0.80;;;8.00;1.00;;;;;;7377858;19;20032;-71
2023/12/31 12:41:04;;;;;;;1.80;1.00;;;8.00;1.00;;;;;;7377533;19;20007;-70
2023/12/31 12:43:34;;;;;;;2.45;1.00;;;8.00;1.00;;;;;;7376165;19;20368;-71
2023/12/31 12:46:06;;;;;;;1.48;0.98;;;8.00;1.00;;;;;;7377807;19;20555;-69
2023/12/31 12:48:41;;;;;;;1.67;0.80;;;8.00;1.00;;;;;;7378744;19;20014;-71
2023/12/31 12:51:12;;;;;;;2.03;0.90;;;8.10;1.00;;;;;;7379273;19;20014;-71
2023/12/31 12:53:42;;;;;;;1.05;0.93;;;8.00;1.00;;;;;;7379479;19;20018;-71
2023/12/31 12:56:12;;;;;;;1.02;0.75;;;8.00;1.00;;;;;;7380030;19;20343;-69
2023/12/31 12:58:42;;;;;;;1.40;0.90;;;8.00;1.00;;;;;;7378094;19;20031;-70
2023/12/31 13:01:12;;;;;;;1.10;0.60;;;8.00;1.00;;;;;;7378878;19;20015;-71
2023/12/31 13:03:46;;;;;;;0.90;0.68;;;8.00;1.00;;;;;;7378872;19;20027;-70
2023/12/31 13:06:16;;;;;;;0.70;0.50;;;8.00;1.00;;;;;;7378231;19;20021;-70
2023/12/31 13:08:46;;;;;;;1.05;0.50;;;8.00;1.00;;;;;;7377731;19;20038;-70
2023/12/31 13:11:16;;;;;;;1.15;0.60;;;8.00;1.00;;;;;;7378362;19;20021;-70
2023/12/31 13:13:47;;;;;;;1.25;0.65;;;8.00;1.00;;;;;;7377368;19;20006;-69
2023/12/31 13:16:17;;;;;;;1.85;0.57;;;8.00;1.00;;;;;;7377587;19;20010;-71
2023/12/31 13:18:55;;;;;;;0.43;0.40;;;8.00;1.00;;;;;;7377963;19;20033;-70
2023/12/31 13:21:26;;;;;;;0.43;0.40;;;8.00;1.00;;;;;;7379447;19;20044;-70